Time;durP1;ratioP1;P1;durP2;ratioP2;P2;SDS_P1;SDS_P2;PMS_P1;PMS_P2;Temp;Humidity;BMP_temperature;BMP_pressure;BME280_temperature;BME280_humidity;BME280_pressure;Samples;Min_cycle;Max_cycle;Signal;HPM_P1;HPM_P2
2023/06/27 00:00:13;;;;;;;2.60;1.10;;;;;;;20.29;49.31;100267.75;4993453;28;20038;-85
2023/06/27 00:02:40;;;;;;;5.63;1.27;;;;;;;20.23;49.28;100271.78;4993273;28;20108;-86
2023/06/27 00:05:05;;;;;;;3.40;1.67;;;;;;;20.32;48.99;100264.31;4994191;28;20022;-85
2023/06/27 00:07:31;;;;;;;8.57;2.17;;;;;;;20.25;49.09;100272.28;4993770;28;20030;-85
2023/06/27 00:09:56;;;;;;;3.88;1.88;;;;;;;20.15;49.54;100265.06;4993553;28;20033;-85
2023/06/27 00:12:22;;;;;;;3.10;1.27;;;;;;;20.08;49.54;100273.81;4994079;28;20031;-85
2023/06/27 00:14:47;;;;;;;7.30;2.10;;;;;;;20.09;49.72;100274.66;4994024;28;20169;-85
2023/06/27 00:17:14;;;;;;;4.75;1.70;;;;;;;20.09;49.51;100271.88;4993609;28;20026;-85
2023/06/27 00:19:39;;;;;;;5.15;1.65;;;;;;;20.16;49.67;100278.59;4992761;28;20488;-85
2023/06/27 00:22:09;;;;;;;4.53;2.30;;;;;;;19.83;50.31;100285.19;4994014;28;20042;-86
2023/06/27 00:24:35;;;;;;;5.13;2.35;;;;;;;19.80;50.35;100279.50;4993449;28;20030;-86
2023/06/27 00:27:01;;;;;;;5.95;1.98;;;;;;;19.95;50.05;100275.53;4993934;28;20030;-86
2023/06/27 00:29:27;;;;;;;2.67;1.10;;;;;;;20.04;49.79;100279.16;4993413;28;20027;-85
2023/06/27 00:31:52;;;;;;;3.65;1.73;;;;;;;20.11;49.57;100278.75;4993765;28;20037;-86
2023/06/27 00:34:17;;;;;;;5.75;2.60;;;;;;;19.97;50.06;100278.78;4992836;28;20643;-86
2023/06/27 00:36:42;;;;;;;4.33;1.60;;;;;;;19.84;50.32;100274.97;4991054;28;20039;-75
2023/06/27 00:39:08;;;;;;;4.43;1.70;;;;;;;19.92;50.47;100276.97;4990400;28;20721;-74
2023/06/27 00:41:33;;;;;;;7.50;1.50;;;;;;;20.17;50.05;100265.56;4990121;28;20088;-75
2023/06/27 00:43:58;;;;;;;4.83;1.93;;;;;;;20.12;49.99;100272.06;4990891;28;20033;-75
2023/06/27 00:46:35;;;;;;;5.60;1.90;;;;;;;19.95;50.26;100281.06;4992720;28;20311;-85
2023/06/27 00:49:01;;;;;;;6.00;1.90;;;;;;;19.91;50.40;100280.84;4992237;28;20248;-86
2023/06/27 00:51:27;;;;;;;9.80;1.95;;;;;;;19.88;50.71;100275.97;4993383;28;20047;-85
2023/06/27 00:53:53;;;;;;;7.25;2.53;;;;;;;19.91;50.40;100275.31;4994298;28;20113;-86
2023/06/27 00:56:18;;;;;;;3.10;1.17;;;;;;;19.95;50.46;100281.84;4995381;28;20106;-85
2023/06/27 00:58:44;;;;;;;4.97;1.63;;;;;;;19.81;50.58;100281.13;4995637;28;20407;-85
2023/06/27 01:01:09;;;;;;;3.72;1.67;;;;;;;19.71;51.05;100283.00;4995893;28;20054;-85
2023/06/27 01:03:36;;;;;;;5.32;1.60;;;;;;;19.78;50.92;100279.81;4996407;28;20080;-86
2023/06/27 01:06:09;;;;;;;4.88;1.88;;;;;;;19.74;50.69;100278.81;4995915;28;20026;-85
2023/06/27 01:08:40;;;;;;;4.13;1.60;;;;;;;19.74;51.10;100264.97;4995751;28;20080;-85
2023/06/27 01:11:15;;;;;;;6.25;2.20;;;;;;;19.68;51.22;100274.53;4996018;28;20033;-86
2023/06/27 01:13:43;;;;;;;4.15;1.90;;;;;;;19.66;51.09;100272.09;4995366;28;20334;-85
2023/06/27 01:16:10;;;;;;;5.43;1.70;;;;;;;19.67;51.52;100270.16;4995694;28;20084;-85
2023/06/27 01:18:39;;;;;;;3.75;1.52;;;;;;;19.59;51.36;100272.50;4994336;28;20053;-83
2023/06/27 01:21:08;;;;;;;9.50;3.00;;;;;;;19.60;51.29;100274.16;4995069;28;20125;-85
2023/06/27 01:23:50;;;;;;;6.22;1.98;;;;;;;19.60;51.10;100270.56;4994127;28;20120;-85
2023/06/27 01:26:16;;;;;;;5.82;2.05;;;;;;;19.48;51.53;100262.84;4994619;28;20038;-85
2023/06/27 01:28:42;;;;;;;5.70;1.52;;;;;;;19.47;51.76;100262.03;4994404;28;20034;-85
2023/06/27 01:31:09;;;;;;;5.18;1.90;;;;;;;19.55;51.67;100267.91;4995571;28;20053;-84
2023/06/27 01:33:44;;;;;;;5.68;1.58;;;;;;;19.46;51.83;100256.81;4993953;28;20068;-85
2023/06/27 01:36:21;;;;;;;5.03;1.63;;;;;;;19.43;51.79;100261.00;4994318;28;20283;-86
2023/06/27 01:39:02;;;;;;;5.75;1.85;;;;;;;19.48;51.91;100263.66;4995272;28;20484;-86
2023/06/27 01:41:32;;;;;;;4.50;2.03;;;;;;;19.46;51.96;100254.88;4995775;28;20053;-84
2023/06/27 01:44:02;;;;;;;7.78;2.05;;;;;;;19.36;52.00;100260.63;4992513;28;20062;-86
2023/06/27 01:46:28;;;;;;;5.57;1.65;;;;;;;19.23;52.64;100256.78;4993318;28;20026;-85
2023/06/27 01:48:55;;;;;;;3.55;2.30;;;;;;;19.38;52.31;100252.03;4995816;28;20083;-85
2023/06/27 01:51:20;;;;;;;2.60;1.20;;;;;;;19.37;52.55;100251.19;4999168;28;20401;-85
2023/06/27 01:53:45;;;;;;;2.97;1.60;;;;;;;19.45;51.99;100253.22;4995931;28;20037;-86
2023/06/27 01:56:12;;;;;;;10.50;1.90;;;;;;;19.50;51.72;100260.59;4994739;28;20025;-85
2023/06/27 01:58:38;;;;;;;6.55;2.50;;;;;;;19.50;52.15;100246.75;4995456;28;20256;-86
2023/06/27 02:01:03;;;;;;;3.58;1.92;;;;;;;19.55;51.95;100238.31;4996385;28;20490;-85
2023/06/27 02:03:29;;;;;;;11.15;2.05;;;;;;;19.50;52.07;100244.00;4996096;28;20073;-86
2023/06/27 02:05:54;;;;;;;9.98;1.90;;;;;;;19.23;52.96;100241.03;4993775;28;20650;-75
2023/06/27 02:08:19;;;;;;;3.93;1.70;;;;;;;19.27;52.86;100245.91;4992699;28;20027;-74
2023/06/27 02:10:44;;;;;;;5.70;1.67;;;;;;;19.36;52.75;100249.59;4992689;28;20088;-75
2023/06/27 02:13:10;;;;;;;8.40;2.73;;;;;;;19.38;52.63;100249.25;4992338;28;20038;-76
2023/06/27 02:15:35;;;;;;;3.47;1.80;;;;;;;19.46;52.49;100248.50;4992737;28;20069;-75
2023/06/27 02:18:02;;;;;;;7.03;1.93;;;;;;;19.41;52.56;100252.22;4989900;28;20284;-75
2023/06/27 02:20:28;;;;;;;9.85;2.45;;;;;;;19.41;52.60;100251.38;4989928;28;20117;-75
2023/06/27 02:22:53;;;;;;;3.35;1.45;;;;;;;19.37;52.66;100248.44;4990997;28;20118;-74
2023/06/27 02:25:19;;;;;;;7.70;2.27;;;;;;;19.22;52.98;100247.66;4992164;28;20045;-75
2023/06/27 02:27:44;;;;;;;4.27;1.90;;;;;;;19.27;52.86;100240.38;4992928;28;20061;-75
2023/06/27 02:30:10;;;;;;;6.87;1.70;;;;;;;19.30;52.91;100237.81;4992060;28;20737;-75
2023/06/27 02:32:35;;;;;;;5.35;2.70;;;;;;;19.31;52.99;100246.91;4992233;28;20248;-75
2023/06/27 02:35:00;;;;;;;6.53;2.60;;;;;;;19.25;52.97;100244.28;4993552;28;20080;-75
2023/06/27 02:37:25;;;;;;;5.90;2.20;;;;;;;19.23;53.11;100241.03;4991817;28;21106;-75
2023/06/27 02:39:52;;;;;;;8.70;2.43;;;;;;;19.28;53.01;100234.56;4992259;28;20311;-75
2023/06/27 02:42:17;;;;;;;6.40;1.83;;;;;;;19.28;53.16;100237.34;4992224;28;20027;-75
2023/06/27 02:44:43;;;;;;;8.23;1.77;;;;;;;19.11;53.15;100232.44;4992224;28;20539;-75
2023/06/27 02:47:08;;;;;;;7.37;1.90;;;;;;;19.13;53.40;100233.75;4991813;28;20023;-75
2023/06/27 02:49:33;;;;;;;4.73;2.33;;;;;;;19.20;53.31;100236.09;4991701;28;20821;-75
2023/06/27 02:51:58;;;;;;;5.43;2.13;;;;;;;19.36;52.71;100231.03;4991230;28;20035;-75
2023/06/27 02:54:24;;;;;;;13.95;4.53;;;;;;;19.30;52.90;100242.53;4991806;28;20339;-75
2023/06/27 02:56:49;;;;;;;4.93;2.10;;;;;;;19.28;52.70;100239.28;4991953;28;20058;-75
2023/06/27 02:59:14;;;;;;;6.13;2.30;;;;;;;19.29;53.06;100243.66;4991693;28;20248;-74
2023/06/27 03:01:39;;;;;;;13.67;2.43;;;;;;;19.38;52.87;100243.72;4991820;28;20092;-75
2023/06/27 03:04:05;;;;;;;6.20;1.80;;;;;;;19.51;52.38;100244.78;4991681;28;20267;-75
2023/06/27 03:06:30;;;;;;;7.17;2.33;;;;;;;19.32;52.64;100243.84;4991598;28;20456;-74
2023/06/27 03:08:55;;;;;;;4.57;1.97;;;;;;;19.34;52.98;100243.56;4991526;28;20108;-75
2023/06/27 03:11:20;;;;;;;5.47;2.03;;;;;;;19.32;53.03;100243.03;4991282;28;20256;-75
2023/06/27 03:13:46;;;;;;;5.83;2.10;;;;;;;19.40;53.20;100250.59;4991772;28;20256;-75
2023/06/27 03:16:11;;;;;;;8.70;2.50;;;;;;;19.24;53.46;100253.69;4989904;28;20264;-75
2023/06/27 03:18:36;;;;;;;18.77;2.78;;;;;;;19.14;53.53;100242.88;4991215;28;20158;-75
2023/06/27 03:21:02;;;;;;;6.75;2.70;;;;;;;19.23;53.34;100243.78;4991843;28;20041;-75
2023/06/27 03:23:27;;;;;;;4.20;1.75;;;;;;;19.28;53.48;100244.78;4991826;28;20093;-74
2023/06/27 03:25:52;;;;;;;7.50;2.40;;;;;;;19.27;53.24;100248.66;4991776;28;21333;-75
2023/06/27 03:28:18;;;;;;;7.13;2.42;;;;;;;19.39;53.06;100243.41;4991300;28;20029;-74
2023/06/27 03:30:43;;;;;;;6.43;2.40;;;;;;;19.37;53.36;100248.44;4996803;28;20026;-76
2023/06/27 03:33:11;;;;;;;9.53;3.20;;;;;;;19.34;53.11;100249.88;4991566;28;20254;-75
2023/06/27 03:35:36;;;;;;;15.57;3.47;;;;;;;19.38;53.20;100250.09;4983695;28;20248;-75
2023/06/27 03:38:02;;;;;;;10.80;2.50;;;;;;;19.26;53.56;100242.34;4991245;28;20573;-75
2023/06/27 03:40:28;;;;;;;5.97;1.98;;;;;;;19.37;53.52;100245.69;4990077;28;20244;-75
2023/06/27 03:42:55;;;;;;;8.63;3.20;;;;;;;19.41;53.00;100246.69;4991025;28;20026;-75
2023/06/27 03:45:21;;;;;;;4.40;1.95;;;;;;;19.42;53.30;100248.34;4991057;28;20473;-75
2023/06/27 03:47:46;;;;;;;7.15;2.70;;;;;;;19.43;53.17;100249.94;4990623;28;20551;-76
2023/06/27 03:50:12;;;;;;;10.63;1.97;;;;;;;19.47;53.24;100253.72;4987384;28;20136;-75
2023/06/27 03:52:37;;;;;;;8.73;3.57;;;;;;;19.40;53.76;100249.75;4989954;28;20331;-75
2023/06/27 03:55:04;;;;;;;6.80;2.47;;;;;;;19.45;53.66;100249.63;4991187;28;20259;-75
2023/06/27 03:57:29;;;;;;;4.30;2.28;;;;;;;19.50;53.73;100254.22;4988511;28;20060;-76
2023/06/27 03:59:54;;;;;;;6.83;2.03;;;;;;;19.55;53.50;100252.16;4989824;28;20125;-75
2023/06/27 04:02:20;;;;;;;7.07;2.73;;;;;;;19.45;53.93;100247.69;4983565;28;20264;-76
2023/06/27 04:04:45;;;;;;;6.13;2.43;;;;;;;19.44;53.72;100251.59;4982268;28;20042;-84
2023/06/27 04:07:10;;;;;;;9.60;3.80;;;;;;;19.45;53.83;100247.69;4984989;28;20048;-83
2023/06/27 04:09:35;;;;;;;12.80;2.93;;;;;;;19.55;53.80;100248.56;4984417;28;20409;-86
2023/06/27 04:12:01;;;;;;;7.43;2.67;;;;;;;19.55;53.71;100246.63;4985134;28;20276;-84
2023/06/27 04:14:27;;;;;;;7.23;2.83;;;;;;;19.57;53.64;100249.06;4985554;28;20259;-82
2023/06/27 04:16:53;;;;;;;6.07;2.38;;;;;;;19.55;53.85;100243.03;4985004;28;20045;-81
2023/06/27 04:19:18;;;;;;;6.97;2.60;;;;;;;19.44;54.09;100246.06;4983773;28;20039;-83
2023/06/27 04:21:43;;;;;;;6.90;2.57;;;;;;;19.36;54.58;100235.75;4984315;28;20038;-83
2023/06/27 04:24:09;;;;;;;7.07;2.30;;;;;;;19.36;54.89;100253.13;4984187;28;20034;-83
2023/06/27 04:26:34;;;;;;;6.77;3.23;;;;;;;19.33;54.52;100239.97;4983197;28;20629;-77
2023/06/27 04:28:59;;;;;;;6.47;2.47;;;;;;;19.44;54.82;100246.06;4983798;28;20172;-78
2023/06/27 04:31:25;;;;;;;8.90;2.53;;;;;;;19.54;54.88;100238.66;4986230;28;20061;-76
2023/06/27 04:33:55;;;;;;;6.28;2.30;;;;;;;19.47;54.97;100239.91;4986713;28;20030;-76
2023/06/27 04:36:20;;;;;;;7.80;2.75;;;;;;;19.59;54.94;100250.41;4985324;28;20570;-76
2023/06/27 04:38:48;;;;;;;8.43;3.75;;;;;;;19.59;54.69;100249.56;4986581;28;20141;-76
2023/06/27 04:41:13;;;;;;;10.52;3.78;;;;;;;19.56;54.81;100237.22;4986632;28;20030;-76
2023/06/27 04:43:41;;;;;;;11.30;4.07;;;;;;;19.73;54.42;100243.16;4986512;28;20423;-76
2023/06/27 04:46:07;;;;;;;11.80;3.38;;;;;;;19.78;54.46;100243.03;4986844;28;20415;-76
2023/06/27 04:48:32;;;;;;;4.75;2.17;;;;;;;19.81;54.50;100245.19;4986096;28;20049;-76
2023/06/27 04:50:58;;;;;;;9.82;3.50;;;;;;;19.73;54.92;100243.97;4986415;28;20387;-76
2023/06/27 04:53:24;;;;;;;8.27;3.00;;;;;;;19.53;55.20;100250.81;4986833;28;20049;-78
2023/06/27 04:55:51;;;;;;;8.77;2.65;;;;;;;19.35;55.19;100243.22;4985901;28;20038;-76
2023/06/27 04:58:18;;;;;;;7.47;3.15;;;;;;;19.25;55.63;100247.06;4985075;28;20073;-79
2023/06/27 05:00:44;;;;;;;7.20;3.20;;;;;;;19.28;55.91;100245.63;4985969;28;20404;-76
2023/06/27 05:03:10;;;;;;;12.50;3.03;;;;;;;19.30;55.97;100248.06;4986096;28;20038;-77
2023/06/27 05:05:35;;;;;;;12.98;3.53;;;;;;;19.35;55.99;100242.41;4986313;28;20041;-76
2023/06/27 05:08:02;;;;;;;12.88;3.40;;;;;;;19.17;56.54;100252.50;4984894;28;21233;-79
2023/06/27 05:10:28;;;;;;;6.07;2.20;;;;;;;19.36;56.58;100246.81;4985962;28;20037;-76
2023/06/27 05:12:53;;;;;;;6.87;2.80;;;;;;;19.42;56.18;100247.50;4986623;28;20476;-77
2023/06/27 05:15:19;;;;;;;5.82;2.70;;;;;;;19.52;56.39;100251.97;4985477;28;20273;-76
2023/06/27 05:17:51;;;;;;;3.77;1.87;;;;;;;19.46;56.30;100254.03;4986335;28;20042;-76
2023/06/27 05:20:17;;;;;;;8.20;2.40;;;;;;;19.62;56.32;100251.72;4985461;28;20488;-77
2023/06/27 05:22:43;;;;;;;9.32;3.25;;;;;;;19.66;56.44;100258.25;4985805;28;20399;-77
2023/06/27 05:25:08;;;;;;;11.18;2.65;;;;;;;19.66;56.57;100252.72;4985319;28;20066;-79
2023/06/27 05:27:33;;;;;;;11.65;3.20;;;;;;;19.87;56.10;100260.47;4982858;28;20042;-77
2023/06/27 05:29:59;;;;;;;7.82;2.95;;;;;;;19.88;55.88;100253.84;4983973;28;20169;-77
2023/06/27 05:32:24;;;;;;;12.53;2.60;;;;;;;19.90;55.91;100262.63;4984765;28;20041;-76
2023/06/27 05:34:49;;;;;;;5.10;2.53;;;;;;;19.88;55.98;100264.91;4985599;28;20038;-76
2023/06/27 05:37:14;;;;;;;8.50;3.10;;;;;;;19.79;56.13;100255.75;4985040;28;20041;-78
2023/06/27 05:39:40;;;;;;;5.90;2.93;;;;;;;19.78;56.57;100259.63;4983218;28;20447;-77
2023/06/27 05:42:05;;;;;;;5.10;2.30;;;;;;;19.89;56.46;100266.53;4984704;28;20615;-77
2023/06/27 05:44:31;;;;;;;10.00;2.95;;;;;;;19.98;56.12;100269.34;4984005;28;20152;-77
2023/06/27 05:46:56;;;;;;;8.77;2.90;;;;;;;19.74;56.60;100259.44;4983533;28;20081;-77
2023/06/27 05:49:21;;;;;;;7.17;2.43;;;;;;;19.80;56.82;100265.66;4983234;28;20041;-77
2023/06/27 05:51:46;;;;;;;9.20;3.00;;;;;;;19.88;56.79;100264.06;4983869;28;20039;-78
2023/06/27 05:54:12;;;;;;;17.63;3.70;;;;;;;19.93;56.66;100267.53;4983638;28;20268;-77
2023/06/27 05:56:38;;;;;;;6.25;2.35;;;;;;;19.60;57.52;100271.41;4983807;28;20062;-76
2023/06/27 05:59:03;;;;;;;7.70;4.10;;;;;;;19.76;56.89;100265.47;4983749;28;20042;-76
2023/06/27 06:01:28;;;;;;;8.93;2.78;;;;;;;19.50;57.79;100276.34;4985111;28;20100;-77
2023/06/27 06:03:54;;;;;;;8.03;2.77;;;;;;;19.71;57.42;100271.94;4985485;28;20472;-78
2023/06/27 06:06:20;;;;;;;11.57;4.27;;;;;;;19.56;57.54;100267.63;4984558;28;20074;-77
2023/06/27 06:08:45;;;;;;;7.22;2.92;;;;;;;19.54;58.15;100272.66;4984525;28;20777;-78
2023/06/27 06:11:10;;;;;;;6.82;2.70;;;;;;;19.73;57.83;100265.31;4984882;28;20034;-77
2023/06/27 06:13:35;;;;;;;12.07;2.60;;;;;;;19.75;57.73;100268.56;4984856;28;20054;-77
2023/06/27 06:16:01;;;;;;;8.83;2.43;;;;;;;19.67;57.87;100265.41;4984636;28;20634;-79
2023/06/27 06:18:26;;;;;;;9.93;3.90;;;;;;;19.63;58.29;100272.69;4983751;28;20027;-74
2023/06/27 06:20:51;;;;;;;8.60;2.37;;;;;;;19.46;58.32;100265.09;4984939;28;20034;-79
2023/06/27 06:23:16;;;;;;;10.67;3.10;;;;;;;19.65;57.96;100264.91;4986522;28;20077;-77
2023/06/27 06:25:42;;;;;;;10.77;3.23;;;;;;;19.57;58.25;100271.19;4984953;28;20030;-77
2023/06/27 06:28:07;;;;;;;6.90;3.23;;;;;;;19.55;58.48;100268.75;4983097;28;20042;-78
2023/06/27 06:30:32;;;;;;;11.83;3.97;;;;;;;19.39;58.78;100268.28;4984474;28;20741;-79
2023/06/27 06:32:57;;;;;;;9.33;3.07;;;;;;;19.50;58.99;100270.81;4984930;28;20153;-81
2023/06/27 06:35:22;;;;;;;6.23;2.70;;;;;;;19.42;58.94;100275.97;4984584;28;20034;-77
2023/06/27 06:37:48;;;;;;;6.40;3.00;;;;;;;19.43;59.29;100265.72;4984954;28;20062;-76
2023/06/27 06:40:13;;;;;;;12.17;2.90;;;;;;;19.43;59.14;100272.06;4984289;28;20755;-76
2023/06/27 06:42:38;;;;;;;8.70;3.13;;;;;;;19.55;59.16;100270.69;4984935;28;20338;-75
2023/06/27 06:45:04;;;;;;;10.23;4.35;;;;;;;19.35;58.97;100276.41;4984777;28;20288;-75
2023/06/27 06:47:30;;;;;;;12.00;4.22;;;;;;;19.28;59.51;100264.13;4983805;28;20530;-79
2023/06/27 06:49:55;;;;;;;9.47;3.57;;;;;;;19.40;59.39;100258.88;4983823;28;20054;-78
2023/06/27 06:52:20;;;;;;;23.47;4.23;;;;;;;19.50;59.62;100265.28;4983201;28;20323;-77
2023/06/27 06:54:46;;;;;;;21.83;5.37;;;;;;;19.71;59.22;100254.53;4988055;28;20098;-75
2023/06/27 06:57:12;;;;;;;14.82;3.95;;;;;;;19.67;59.63;100259.09;4991967;28;20026;-77
2023/06/27 06:59:37;;;;;;;26.83;5.72;;;;;;;19.76;59.39;100264.66;4986657;28;20038;-71
2023/06/27 07:02:02;;;;;;;38.28;6.80;;;;;;;19.69;59.66;100274.22;4983117;28;20038;-70
2023/06/27 07:04:27;;;;;;;8.68;3.85;;;;;;;19.87;59.55;100274.31;4983645;28;20586;-71
2023/06/27 07:06:53;;;;;;;12.03;4.43;;;;;;;19.91;59.10;100269.78;4983384;28;20046;-71
2023/06/27 07:09:18;;;;;;;8.57;3.67;;;;;;;19.74;59.55;100269.69;4983310;28;20295;-70
2023/06/27 07:11:43;;;;;;;10.20;3.77;;;;;;;19.83;59.93;100273.34;4983551;28;20267;-70
2023/06/27 07:14:09;;;;;;;14.23;6.00;;;;;;;20.08;58.99;100270.22;4983612;28;20335;-73
2023/06/27 07:16:34;;;;;;;11.48;4.05;;;;;;;20.05;59.60;100274.44;4983209;28;20113;-70
2023/06/27 07:19:02;;;;;;;27.88;5.90;;;;;;;20.00;59.79;100277.31;4983750;28;20468;-77
2023/06/27 07:21:28;;;;;;;14.40;5.00;;;;;;;19.87;60.34;100266.00;4991366;28;20054;-81
2023/06/27 07:23:53;;;;;;;12.30;4.63;;;;;;;19.91;60.53;100257.94;4992958;28;20487;-80
2023/06/27 07:26:18;;;;;;;14.13;3.63;;;;;;;20.09;59.88;100264.41;4993202;28;20263;-76
2023/06/27 07:28:44;;;;;;;12.30;4.78;;;;;;;20.12;60.11;100257.41;4994348;28;20042;-78
2023/06/27 07:31:09;;;;;;;13.00;5.30;;;;;;;20.17;60.02;100271.94;4993970;28;21110;-77
2023/06/27 07:33:34;;;;;;;18.73;5.40;;;;;;;20.15;59.94;100265.91;4985870;28;20275;-77
2023/06/27 07:35:59;;;;;;;11.85;3.63;;;;;;;20.21;60.10;100265.75;4990669;28;20282;-83
2023/06/27 07:38:25;;;;;;;15.63;5.33;;;;;;;20.24;60.07;100260.38;4993438;28;20039;-83
2023/06/27 07:40:50;;;;;;;17.93;4.77;;;;;;;20.30;59.78;100256.34;4993990;28;20030;-83
2023/06/27 07:43:15;;;;;;;10.50;4.60;;;;;;;20.14;60.52;100267.03;4993640;28;20048;-82
2023/06/27 07:45:40;;;;;;;8.60;3.45;;;;;;;20.36;60.13;100257.03;4992878;28;20041;-83
2023/06/27 07:48:06;;;;;;;14.00;3.95;;;;;;;20.17;60.97;100260.88;4995569;28;20045;-82
2023/06/27 07:50:31;;;;;;;30.13;6.00;;;;;;;20.16;60.66;100259.22;4985909;28;20038;-83
2023/06/27 07:52:56;;;;;;;28.17;6.40;;;;;;;20.29;60.70;100253.91;4983804;28;20335;-83
2023/06/27 07:55:21;;;;;;;14.17;4.53;;;;;;;20.07;60.61;100255.56;4984984;28;20124;-83
2023/06/27 07:57:47;;;;;;;16.37;5.40;;;;;;;20.15;61.19;100251.25;4984531;28;20084;-83
2023/06/27 08:00:12;;;;;;;13.23;5.30;;;;;;;20.21;60.88;100254.69;4984283;28;20260;-83
2023/06/27 08:02:38;;;;;;;14.18;4.72;;;;;;;20.42;61.06;100249.41;4984926;28;20264;-83
2023/06/27 08:05:05;;;;;;;22.48;4.45;;;;;;;20.67;60.10;100254.50;4986831;28;20435;-83
2023/06/27 08:07:30;;;;;;;8.20;3.80;;;;;;;20.45;60.54;100248.75;4987887;28;20519;-83
2023/06/27 08:09:55;;;;;;;11.95;5.32;;;;;;;20.60;60.43;100257.75;4988016;28;20041;-83
2023/06/27 08:12:20;;;;;;;19.30;4.77;;;;;;;20.76;59.75;100258.13;4988154;28;20037;-82
2023/06/27 08:14:47;;;;;;;14.73;4.70;;;;;;;20.83;59.42;100252.91;4988303;28;20761;-83
2023/06/27 08:17:12;;;;;;;10.20;4.15;;;;;;;20.81;59.51;100255.19;4987999;28;20530;-83
2023/06/27 08:19:38;;;;;;;14.75;3.58;;;;;;;20.78;59.53;100261.41;4987559;28;20081;-83
2023/06/27 08:22:03;;;;;;;10.35;4.10;;;;;;;21.06;58.89;100255.59;4987950;28;20400;-83
2023/06/27 08:24:28;;;;;;;15.02;3.28;;;;;;;20.97;58.83;100252.81;4988128;28;20504;-83
2023/06/27 08:26:55;;;;;;;10.65;3.60;;;;;;;21.06;58.76;100250.06;4988066;28;20053;-83
2023/06/27 08:29:21;;;;;;;9.90;3.58;;;;;;;21.18;58.11;100245.81;4987168;28;20041;-83
2023/06/27 08:31:48;;;;;;;12.35;4.40;;;;;;;21.06;57.80;100238.16;4988159;28;20034;-83
2023/06/27 08:34:13;;;;;;;6.30;3.00;;;;;;;20.90;58.16;100240.53;4987976;28;20038;-83
2023/06/27 08:36:39;;;;;;;13.40;4.18;;;;;;;21.14;57.63;100242.06;4987297;28;20862;-83
2023/06/27 08:39:04;;;;;;;15.18;4.32;;;;;;;21.22;57.66;100238.47;4987425;28;20932;-83
2023/06/27 08:41:29;;;;;;;9.10;3.80;;;;;;;21.23;56.96;100240.13;4986965;28;20034;-83
2023/06/27 08:43:55;;;;;;;9.85;3.50;;;;;;;21.49;57.05;100249.56;4987951;28;20030;-83
2023/06/27 08:46:21;;;;;;;8.35;3.90;;;;;;;21.65;56.39;100241.56;4986769;28;20039;-79
2023/06/27 08:48:47;;;;;;;12.00;3.35;;;;;;;21.78;55.38;100242.50;4986415;28;20099;-78
2023/06/27 08:51:15;;;;;;;14.95;4.63;;;;;;;21.79;55.34;100236.63;4986530;28;20144;-80
2023/06/27 08:53:44;;;;;;;9.85;3.47;;;;;;;21.88;54.12;100235.81;4986455;28;20034;-77
2023/06/27 08:56:15;;;;;;;7.78;2.83;;;;;;;22.01;53.71;100223.69;4986516;28;20360;-77
2023/06/27 08:58:59;;;;;;;13.77;3.17;;;;;;;22.30;52.98;100226.03;4986308;28;20064;-79
2023/06/27 09:01:26;;;;;;;9.32;4.15;;;;;;;21.94;53.11;100231.72;4986615;28;20053;-78
2023/06/27 09:03:52;;;;;;;16.35;4.20;;;;;;;21.91;51.00;100224.88;4986274;28;20548;-78
2023/06/27 09:06:18;;;;;;;6.43;2.40;;;;;;;21.96;51.22;100223.88;4986795;28;20168;-83
2023/06/27 09:08:43;;;;;;;11.30;3.75;;;;;;;22.22;50.75;100222.16;4985621;28;20116;-83
2023/06/27 09:11:09;;;;;;;9.15;3.08;;;;;;;22.27;50.98;100225.53;4987026;28;20041;-83
2023/06/27 09:13:39;;;;;;;8.57;3.85;;;;;;;22.31;50.98;100216.56;4986891;28;20044;-83
2023/06/27 09:16:07;;;;;;;11.55;4.15;;;;;;;22.25;50.91;100216.72;4986545;28;20037;-82
2023/06/27 09:18:35;;;;;;;9.07;3.47;;;;;;;22.31;50.01;100211.00;4986642;28;20073;-83
2023/06/27 09:21:00;;;;;;;6.72;3.55;;;;;;;22.33;49.58;100219.81;4987345;28;20046;-83
2023/06/27 09:23:28;;;;;;;6.90;2.35;;;;;;;22.36;48.08;100219.13;4986778;28;20228;-83
2023/06/27 09:26:09;;;;;;;13.20;3.35;;;;;;;22.35;48.01;100217.53;4986718;28;20491;-83
2023/06/27 09:28:48;;;;;;;12.00;3.90;;;;;;;22.12;47.92;100226.13;4986190;28;20392;-84
2023/06/27 09:31:17;;;;;;;8.02;4.03;;;;;;;22.01;48.20;100215.38;4986656;28;20467;-83
2023/06/27 09:33:47;;;;;;;9.15;4.25;;;;;;;21.90;48.00;100203.00;4986721;28;20042;-83
2023/06/27 09:36:29;;;;;;;10.63;3.88;;;;;;;22.00;48.07;100208.19;4986311;28;20431;-83
2023/06/27 09:38:56;;;;;;;8.27;3.92;;;;;;;22.30;48.28;100203.81;4986749;28;20391;-83
2023/06/27 09:41:21;;;;;;;8.05;4.03;;;;;;;22.62;48.07;100199.56;4986415;28;20125;-83
2023/06/27 09:43:51;;;;;;;9.25;4.10;;;;;;;22.49;48.37;100209.78;4985226;28;20145;-83
2023/06/27 09:46:16;;;;;;;8.10;4.00;;;;;;;22.72;47.78;100215.03;4986255;28;20060;-83
2023/06/27 09:48:43;;;;;;;9.07;3.03;;;;;;;23.01;46.79;100208.94;4985965;28;20492;-82
2023/06/27 09:51:08;;;;;;;13.57;4.10;;;;;;;22.73;46.99;100200.00;4985645;28;20529;-83
2023/06/27 09:53:34;;;;;;;7.82;3.78;;;;;;;22.40;47.62;100206.22;4986426;28;20161;-83
2023/06/27 09:56:00;;;;;;;13.35;4.22;;;;;;;22.38;47.80;100202.97;4986537;28;20038;-83
2023/06/27 09:58:31;;;;;;;13.18;3.80;;;;;;;22.13;48.28;100202.78;4985536;28;20141;-83
2023/06/27 10:01:06;;;;;;;8.00;3.97;;;;;;;22.43;47.77;100211.13;4986412;28;20038;-83
2023/06/27 10:03:33;;;;;;;11.10;4.13;;;;;;;22.73;47.87;100204.75;4986245;28;20116;-83
2023/06/27 10:05:59;;;;;;;9.18;3.55;;;;;;;22.82;47.74;100202.72;4986482;28;20399;-83
2023/06/27 10:08:25;;;;;;;11.65;3.70;;;;;;;22.94;47.27;100215.88;4986065;28;20523;-83
2023/06/27 10:10:51;;;;;;;14.18;4.40;;;;;;;22.83;47.35;100211.88;4986059;28;20173;-82
2023/06/27 10:13:16;;;;;;;6.75;2.92;;;;;;;22.81;47.53;100203.88;4985033;28;20140;-83
2023/06/27 10:15:41;;;;;;;12.85;5.00;;;;;;;22.92;46.78;100212.63;4985744;28;20082;-80
2023/06/27 10:18:07;;;;;;;8.10;3.53;;;;;;;22.78;46.88;100215.66;4985070;28;20034;-77
2023/06/27 10:20:32;;;;;;;9.97;3.13;;;;;;;23.04;46.88;100208.28;4985038;28;20038;-77
2023/06/27 10:22:58;;;;;;;10.57;2.78;;;;;;;23.32;46.07;100213.28;4984853;28;20426;-78
2023/06/27 10:25:25;;;;;;;9.05;3.30;;;;;;;23.51;45.89;100220.34;4985259;28;20186;-77
2023/06/27 10:27:50;;;;;;;5.38;2.53;;;;;;;23.38;45.10;100214.69;4984068;28;20048;-77
2023/06/27 10:30:19;;;;;;;8.73;2.55;;;;;;;22.97;45.53;100208.81;4984569;28;20308;-78
2023/06/27 10:32:44;;;;;;;7.85;3.30;;;;;;;22.94;45.90;100213.09;4985023;28;20042;-78
2023/06/27 10:35:26;;;;;;;9.23;3.22;;;;;;;23.00;46.15;100207.34;4983695;28;20523;-77
2023/06/27 10:38:19;;;;;;;10.05;3.40;;;;;;;23.29;46.18;100212.00;4984883;28;20045;-77
2023/06/27 10:41:00;;;;;;;19.70;3.95;;;;;;;23.25;46.49;100207.47;4984727;28;20051;-79
2023/06/27 10:43:47;;;;;;;8.15;3.00;;;;;;;23.00;45.75;100212.91;4984469;28;20049;-78
2023/06/27 10:46:27;;;;;;;8.65;2.38;;;;;;;22.79;46.20;100208.13;4984433;28;20030;-78
2023/06/27 10:49:01;;;;;;;5.28;2.55;;;;;;;22.83;46.04;100209.91;4984328;28;20479;-78
2023/06/27 10:51:34;;;;;;;7.05;3.40;;;;;;;23.00;45.75;100210.13;4984228;28;20077;-78
2023/06/27 10:54:08;;;;;;;9.57;2.60;;;;;;;23.27;44.63;100211.50;4984588;28;20041;-77
2023/06/27 10:56:42;;;;;;;8.95;3.00;;;;;;;23.32;44.86;100207.72;4984987;28;20415;-78
2023/06/27 10:59:10;;;;;;;8.13;2.38;;;;;;;23.62;44.84;100199.25;4983945;28;20049;-79
2023/06/27 11:01:40;;;;;;;6.03;1.83;;;;;;;23.58;45.19;100203.06;4984251;28;20057;-78
2023/06/27 11:04:19;;;;;;;6.70;2.08;;;;;;;23.16;45.08;100200.00;4984652;28;20112;-78
2023/06/27 11:06:45;;;;;;;7.75;2.70;;;;;;;23.35;44.72;100201.47;4984420;28;20053;-77
2023/06/27 11:09:14;;;;;;;8.30;2.55;;;;;;;23.06;44.57;100205.97;4983491;28;20042;-77
2023/06/27 11:11:39;;;;;;;4.07;1.85;;;;;;;22.81;45.05;100205.84;4983818;28;20027;-78
2023/06/27 11:14:09;;;;;;;11.60;2.92;;;;;;;22.85;45.76;100213.16;4983817;28;20068;-79
2023/06/27 11:16:35;;;;;;;11.95;3.55;;;;;;;22.81;46.07;100212.22;4983918;28;20580;-78
2023/06/27 11:19:02;;;;;;;4.40;2.00;;;;;;;22.66;45.84;100210.81;4983363;28;20042;-78